AirNav   Pilot Hours Calculator
 
 1678 users online  

T37 Goldthwaite Municipal Airport
Goldthwaite, Texas, USA

GOING TO GOLDTHWAITE?


FAA INFORMATION EFFECTIVE 11 AUGUST 2022

Location

FAA Identifier: T37
Lat/Long: 31-25-44.6400N 098-36-30.0800W
31-25.744000N 098-36.501333W
31.4290667,-98.6083556
(estimated)
Elevation: 1457.6 ft. / 444.3 m (surveyed)
Variation: 04E (2025)
From city: 2 miles SW of GOLDTHWAITE, TX
Time zone: UTC -5 (UTC -6 during Standard Time)
Zip code: 76844

Airport Operations

Airport use: Open to the public
Activation date: 08/2010
Control tower: no
ARTCC: FORT WORTH CENTER
FSS: FORT WORTH FLIGHT SERVICE STATION
NOTAMs facility: FTW (NOTAM-D service available)
Attendance: 0800-1700
Wind indicator: lighted
Segmented circle: yes
Lights: MIRLS RWY 01/19 PRE-SET LOW INTST; TO INCR INTST AND ACTVT - CTAF. PAPI RWY 01 & 19 OPR CONSLY.
Beacon: white-green (lighted land airport)
Operates sunset to sunrise.

Airport Communications

CTAF: 122.9
WX AWOS-3P at 81R (13 nm SW): 120.525 (325-372-6027)

Nearby radio navigation aids

VOR radial/distance  VOR name  Freq  Var
AGJr296/28.0GOOCH SPRINGS VORTAC112.5005E
BWDr139/33.0BROWNWOOD VOR/DME113.5508E
LLOr006/39.1LLANO VORTAC108.2008E

Airport Services

Parking: hangars

Runway Information

Runway 1/19

Dimensions: 3200 x 60 ft. / 975 x 18 m
Surface: asphalt, in excellent condition
Weight bearing capacity: 
Single wheel: 12.5
Runway edge lights: medium intensity
RUNWAY 1  RUNWAY 19
Latitude: 31-25.485000N31-26.002833N
Longitude: 098-36.560833W098-36.442000W
Elevation: 1445.7 ft.1457.6 ft.
Traffic pattern: leftleft
Runway heading: 007 magnetic, 011 true187 magnetic, 191 true
Markings: basic, in good conditionbasic, in good condition
Visual slope indicator: 2-light PAPI on left (3.00 degrees glide path)2-light PAPI on left (3.00 degrees glide path)
Touchdown point: yes, no lightsyes, no lights
Obstructions: 3 ft. fence, 200 ft. from runway, 91 ft. left of centerline
3 FT FENCE 0-200 FT FM THR, 91 FT L.
50 ft. tree, 1133 ft. from runway, 32 ft. left of centerline, 18:1 slope to clear

Airport Ownership and Management from official FAA records

Ownership: Publicly-owned
Owner: CITY OF GOLDTHWAITE
PO BOX 450
GOLDTHWAITE, TX 76844-0450
Phone 325-648-3186
Manager: ROBERT LINDSEY
PO BOX 450
GOLDTHWAITE, TX 76844-0450
Phone 325-648-3186
CITY MGR

Airport Operational Statistics

Aircraft based on the field: 9
Single engine airplanes: 9
    
Aircraft operations: avg 52/week *
67% local general aviation
33% transient general aviation
* for 12-month period ending 13 September 2017

Additional Remarks

RWY 01 HAS 4 FT FENCE AND ISOLD + 18 FT TREES 400-475 FT FM THR ACRS APCH.
DEER ON & INVOF ARPT.
FOR CD CTC FORT WORTH ARTCC AT 817-858-7584.

Instrument Procedures

There are no published instrument procedures at T37.

Some nearby airports with instrument procedures:

KMNZ - Hamilton Municipal Airport (27 nm NE)
KBWD - Brownwood Regional Airport (28 nm NW)
KLZZ - Lampasas Airport (29 nm SE)
KMKN - Comanche County-City Airport (29 nm N)
KAQO - Llano Municipal Airport (39 nm S)
 
Loc | Ops | Rwys | IFR | FBO | Links
Com | Nav | Svcs | Stats | Notes
Aerial photo
WARNING: Photo may not be current or correct
Aerial photo of T37 (Goldthwaite Municipal Airport)
Photo taken 20-Sep-2010

Do you have a better or more recent aerial photo of Goldthwaite Municipal Airport that you would like to share? If so, please send us your photo.

 
Sectional chart

 
Airport distance calculator
Flying to Goldthwaite Municipal Airport? Find the distance to fly.

From to T37

Sunrise and sunset
Times for 16-Aug-2022
 Local
(UTC-5)
 Zulu
(UTC)
Morning civil twilight06:3611:36
Sunrise07:0112:01
Sunset20:1601:16
Evening civil twilight20:4101:41

Current date and time
Zulu (UTC)  16-Aug-2022 14:09:22
Local (UTC-5)  16-Aug-2022 09:09:22
 
METAR
KMNZ 
27nm NE 
161355Z AUTO 23005KT 10SM CLR 27/21 A3003 RMK AO2 T02650210
KLZZ 
29nm SE 
161355Z AUTO 17003KT 10SM CLR 26/21 A2998 RMK AO2 T02550212
KAQO 
39nm S 
161355Z AUTO 19006KT 10SM CLR 26/21 A3000 RMK AO2
KGOP 
42nm E 
161355Z AUTO 10SM CLR 27/22 A3003 RMK AO2
KGRK 
45nm SE 
161356Z AUTO 20005KT 10SM SCT013 26/22 A2998 RMK AO2 SLP140 T02580218
KBMQ 
46nm SE 
161353Z AUTO 18006KT 10SM BKN013 26/22 A3003 RMK AO2 SLP149 T02560222
KCOM 
48nm NW 
161355Z AUTO 00000KT 10SM CLR 25/18 A3004 RMK AO2 T02530184
KHLR 
49nm E 
161358Z AUTO 20007KT 10SM SCT013 26/22 A3001 RMK AO2 SLP150 T02640222
TAF
KBBD 
40nm W 
161120Z 1612/1712 15007KT P6SM OVC250 AMD NOT SKED
KGRK 
45nm SE 
160800Z 1608/1714 19009KT 9999 SKC QNH2992INS BECMG 1612/1613 21006KT 9999 BKN020 QNH2996INS BECMG 1613/1614 21006KT 9999 BKN030 QNH2997INS BECMG 1615/1616 17012G18KT 9999 BKN050 QNH2994INS BECMG 1617/1618 15012G20KT 9999 SCT065 QNH2986INS BECMG 1622/1623 17009KT 9999 FEW075 QNH2987INS BECMG 1712/1713 22006KT 9999 SCT025 QNH2997INS TX37/1621Z TN23/1612Z
NOTAMs
Click for the latest NOTAMs
NOTAMs are issued by the DoD/FAA and will open in a separate window not controlled by AirNav.

 

 
 

Would you like to see your business listed on this page?

 If your business provides an interesting product or service to pilots, flight crews, aircraft, or users of the Goldthwaite Municipal Airport, you should consider listing it here.  To start the listing process, click on the button below
 
Add a business
 

Other Pages about Goldthwaite Municipal Airport

Update a link
 
Copyright © AirNav, LLC. All rights reserved. Privacy Policy  Contact